Time,TemperatureF,DewpointF,PressureIn,WindDirection,WindDirectionDegrees,WindSpeedMPH,WindSpeedGustMPH,Humidity,HourlyPrecipIn,Conditions,Clouds,dailyrainin,SoftwareType,DateUTC
2013-03-21 00:02:00,39.8,26.0,29.81,NNW,344,8.0,11.0,57,0.00,,,0.00,weatherlink.com 1.10,2013-03-21 04:02:00,
2013-03-21 00:17:00,39.3,25.0,29.83,West,270,4.0,7.0,58,0.00,,,0.00,weatherlink.com 1.10,2013-03-21 04:17:00,
2013-03-21 00:32:00,38.6,26.0,29.83,NNW,338,6.0,11.0,61,0.00,,,0.00,weatherlink.com 1.10,2013-03-21 04:32:00,
2013-03-21 00:47:00,38.2,26.0,29.83,NW,307,2.0,11.0,63,0.00,,,0.00,weatherlink.com 1.10,2013-03-21 04:47:00,
2013-03-21 01:02:00,37.7,26.0,29.82,NNE,22,5.0,10.0,64,0.00,,,0.00,weatherlink.com 1.10,2013-03-21 05:02:00,
2013-03-21 01:19:00,37.7,26.0,29.82,NNE,22,7.0,9.0,64,0.00,,,0.00,weatherlink.com 1.10,2013-03-21 05:19:00,
2013-03-21 01:32:00,37.5,27.0,29.81,North,5,2.0,10.0,65,0.00,,,0.00,weatherlink.com 1.10,2013-03-21 05:32:00,
2013-03-21 01:48:00,37.1,27.0,29.81,NW,323,9.0,12.0,66,0.00,,,0.00,weatherlink.com 1.10,2013-03-21 05:48:00,
2013-03-21 02:03:00,36.9,26.0,29.82,NNW,348,3.0,11.0,66,0.00,,,0.00,weatherlink.com 1.10,2013-03-21 06:03:00,
2013-03-21 02:18:00,36.8,26.0,29.82,North,355,6.0,8.0,66,0.00,,,0.00,weatherlink.com 1.10,2013-03-21 06:18:00,
2013-03-21 02:33:00,36.6,26.0,29.82,NNE,14,4.0,10.0,66,0.00,,,0.00,weatherlink.com 1.10,2013-03-21 06:33:00,
2013-03-21 02:48:00,36.2,25.0,29.81,NW,306,5.0,10.0,65,0.00,,,0.00,weatherlink.com 1.10,2013-03-21 06:48:00,
2013-03-21 03:03:00,35.9,25.0,29.81,North,355,2.0,13.0,66,0.00,,,0.00,weatherlink.com 1.10,2013-03-21 07:03:00,
2013-03-21 03:18:00,35.6,25.0,29.80,NNW,339,3.0,13.0,66,0.00,,,0.00,weatherlink.com 1.10,2013-03-21 07:18:00,
2013-03-21 03:33:00,35.1,24.0,29.80,NNE,24,3.0,10.0,65,0.00,,,0.00,weatherlink.com 1.10,2013-03-21 07:33:00,
2013-03-21 03:48:00,34.3,26.0,29.79,North,355,4.0,17.0,71,0.00,,,0.00,weatherlink.com 1.10,2013-03-21 07:48:00,
2013-03-21 04:03:00,33.4,26.0,29.80,NNE,29,7.0,14.0,74,0.00,,,0.00,weatherlink.com 1.10,2013-03-21 08:03:00,
2013-03-21 04:18:00,33.0,27.0,29.80,NE,40,2.0,10.0,79,0.00,,,0.00,weatherlink.com 1.10,2013-03-21 08:18:00,
2013-03-21 04:33:00,32.4,28.0,29.80,NE,43,4.0,12.0,83,0.00,,,0.00,weatherlink.com 1.10,2013-03-21 08:33:00,
2013-03-21 04:48:00,31.8,28.0,29.80,North,5,6.0,9.0,87,0.00,,,0.00,weatherlink.com 1.10,2013-03-21 08:48:00,
2013-03-21 05:03:00,31.6,28.0,29.80,NW,319,9.0,9.0,87,0.00,,,0.00,weatherlink.com 1.10,2013-03-21 09:03:00,
2013-03-21 05:18:00,31.7,28.0,29.80,NNE,20,5.0,9.0,85,0.00,,,0.00,weatherlink.com 1.10,2013-03-21 09:18:00,
2013-03-21 05:33:00,31.7,26.0,29.81,NNE,15,6.0,9.0,78,0.00,,,0.00,weatherlink.com 1.10,2013-03-21 09:33:00,
2013-03-21 05:48:00,31.7,25.0,29.81,NNE,18,1.0,9.0,75,0.00,,,0.00,weatherlink.com 1.10,2013-03-21 09:48:00,
2013-03-21 06:03:00,31.5,25.0,29.81,North,11,0.0,5.0,77,0.00,,,0.00,weatherlink.com 1.10,2013-03-21 10:03:00,
2013-03-21 06:18:00,31.9,22.0,29.81,NNE,28,0.0,6.0,67,0.00,,,0.00,weatherlink.com 1.10,2013-03-21 10:18:00,
2013-03-21 06:33:00,32.3,21.0,29.82,NNE,12,3.0,6.0,63,0.00,,,0.00,weatherlink.com 1.10,2013-03-21 10:33:00,
2013-03-21 06:48:00,32.6,17.0,29.82,NW,319,3.0,9.0,54,0.00,,,0.00,weatherlink.com 1.10,2013-03-21 10:48:00,
2013-03-21 07:03:00,32.5,16.0,29.82,North,355,4.0,11.0,52,0.00,,,0.00,weatherlink.com 1.10,2013-03-21 11:03:00,
2013-03-21 07:18:00,32.4,17.0,29.82,North,10,3.0,9.0,53,0.00,,,0.00,weatherlink.com 1.10,2013-03-21 11:18:00,
2013-03-21 07:33:00,32.2,17.0,29.82,North,355,9.0,10.0,54,0.00,,,0.00,weatherlink.com 1.10,2013-03-21 11:33:00,
2013-03-21 07:48:00,32.1,17.0,29.83,North,355,3.0,11.0,54,0.00,,,0.00,weatherlink.com 1.10,2013-03-21 11:48:00,
2013-03-21 08:03:00,32.0,16.0,29.83,NNE,32,2.0,7.0,53,0.00,,,0.00,weatherlink.com 1.10,2013-03-21 12:03:00,
2013-03-21 08:18:00,32.0,15.0,29.83,NW,316,6.0,19.0,50,0.00,,,0.00,weatherlink.com 1.10,2013-03-21 12:18:00,
2013-03-21 08:33:00,31.8,15.0,29.83,North,349,4.0,10.0,51,0.00,,,0.00,weatherlink.com 1.10,2013-03-21 12:33:00,
2013-03-21 08:48:00,31.5,15.0,29.82,WNW,297,3.0,13.0,50,0.00,,,0.00,weatherlink.com 1.10,2013-03-21 12:48:00,
2013-03-21 09:03:00,31.4,15.0,29.82,NNW,327,8.0,13.0,50,0.00,,,0.00,weatherlink.com 1.10,2013-03-21 13:03:00,
2013-03-21 09:18:00,31.4,15.0,29.82,NW,325,3.0,12.0,50,0.00,,,0.00,weatherlink.com 1.10,2013-03-21 13:18:00,
2013-03-21 09:33:00,31.4,15.0,29.81,NW,313,4.0,14.0,50,0.00,,,0.00,weatherlink.com 1.10,2013-03-21 13:33:00,
2013-03-21 09:48:00,31.9,15.0,29.82,NW,317,7.0,15.0,49,0.00,,,0.00,weatherlink.com 1.10,2013-03-21 13:48:00,
2013-03-21 10:03:00,31.8,14.0,29.81,NW,319,10.0,14.0,49,0.00,,,0.00,weatherlink.com 1.10,2013-03-21 14:03:00,
2013-03-21 10:18:00,32.0,15.0,29.81,NW,315,5.0,13.0,50,0.00,,,0.00,weatherlink.com 1.10,2013-03-21 14:18:00,
2013-03-21 10:33:00,32.2,14.0,29.81,NW,323,3.0,15.0,48,0.00,,,0.00,weatherlink.com 1.10,2013-03-21 14:33:00,
2013-03-21 10:48:00,32.3,15.0,29.81,WNW,294,3.0,12.0,49,0.00,,,0.00,weatherlink.com 1.10,2013-03-21 14:48:00,
2013-03-21 11:04:00,33.0,15.0,29.81,NNE,30,5.0,16.0,47,0.00,,,0.00,weatherlink.com 1.10,2013-03-21 15:04:00,
2013-03-21 11:19:00,33.0,14.0,29.81,West,281,1.0,19.0,46,0.00,,,0.00,weatherlink.com 1.10,2013-03-21 15:19:00,
2013-03-21 11:34:00,32.6,14.0,29.81,NNW,333,4.0,17.0,46,0.00,,,0.00,weatherlink.com 1.10,2013-03-21 15:34:00,
2013-03-21 11:49:00,32.8,12.0,29.81,WNW,283,5.0,15.0,43,0.00,,,0.00,weatherlink.com 1.10,2013-03-21 15:49:00,
2013-03-21 12:04:00,32.9,13.0,29.80,North,360,5.0,13.0,44,0.00,,,0.00,weatherlink.com 1.10,2013-03-21 16:04:00,
2013-03-21 12:19:00,33.2,13.0,29.80,North,5,5.0,13.0,43,0.00,,,0.00,weatherlink.com 1.10,2013-03-21 16:19:00,
2013-03-21 12:34:00,33.8,13.0,29.80,WNW,290,4.0,16.0,43,0.00,,,0.00,weatherlink.com 1.10,2013-03-21 16:34:00,
2013-03-21 12:49:00,34.0,13.0,29.80,NW,304,9.0,16.0,43,0.00,,,0.00,weatherlink.com 1.10,2013-03-21 16:49:00,
2013-03-21 13:04:00,33.7,13.0,29.80,WNW,290,6.0,17.0,42,0.00,,,0.00,weatherlink.com 1.10,2013-03-21 17:04:00,
2013-03-21 13:19:00,34.1,13.0,29.79,West,267,9.0,20.0,41,0.00,,,0.00,weatherlink.com 1.10,2013-03-21 17:19:00,
2013-03-21 13:34:00,33.8,12.0,29.79,NW,313,6.0,19.0,40,0.00,,,0.00,weatherlink.com 1.10,2013-03-21 17:34:00,
2013-03-21 13:49:00,33.5,13.0,29.79,NW,311,6.0,12.0,43,0.00,,,0.00,weatherlink.com 1.10,2013-03-21 17:49:00,
2013-03-21 14:04:00,33.8,12.0,29.78,North,5,5.0,14.0,41,0.00,,,0.00,weatherlink.com 1.10,2013-03-21 18:04:00,
2013-03-21 14:19:00,33.7,12.0,29.79,West,263,8.0,18.0,40,0.00,,,0.00,weatherlink.com 1.10,2013-03-21 18:19:00,
2013-03-21 14:34:00,33.6,10.0,29.78,West,274,18.0,19.0,38,0.00,,,0.00,weatherlink.com 1.10,2013-03-21 18:34:00,
2013-03-21 14:49:00,34.0,10.0,29.78,WNW,302,8.0,17.0,37,0.00,,,0.00,weatherlink.com 1.10,2013-03-21 18:49:00,
2013-03-21 15:04:00,34.1,11.0,29.78,NW,325,6.0,16.0,38,0.00,,,0.00,weatherlink.com 1.10,2013-03-21 19:04:00,
2013-03-21 15:19:00,33.5,10.0,29.78,SW,236,10.0,17.0,38,0.00,,,0.00,weatherlink.com 1.10,2013-03-21 19:19:00,
2013-03-21 15:34:00,33.7,12.0,29.78,WNW,282,13.0,19.0,41,0.00,,,0.00,weatherlink.com 1.10,2013-03-21 19:34:00,
2013-03-21 15:49:00,33.5,11.0,29.78,SW,220,8.0,18.0,39,0.00,,,0.00,weatherlink.com 1.10,2013-03-21 19:49:00,
2013-03-21 16:04:00,33.1,12.0,29.79,WNW,294,6.0,14.0,41,0.00,,,0.00,weatherlink.com 1.10,2013-03-21 20:04:00,
2013-03-21 16:19:00,33.8,12.0,29.79,NW,316,9.0,14.0,40,0.00,,,0.00,weatherlink.com 1.10,2013-03-21 20:19:00,
2013-03-21 16:34:00,34.0,11.0,29.79,WNW,290,5.0,17.0,39,0.00,,,0.00,weatherlink.com 1.10,2013-03-21 20:34:00,
2013-03-21 16:49:00,33.8,10.0,29.79,West,279,7.0,16.0,37,0.00,,,0.00,weatherlink.com 1.10,2013-03-21 20:49:00,
2013-03-21 17:04:00,33.8,10.0,29.80,WNW,289,6.0,12.0,37,0.00,,,0.00,weatherlink.com 1.10,2013-03-21 21:04:00,
2013-03-21 17:19:00,33.4,10.0,29.80,NNW,337,5.0,17.0,37,0.00,,,0.00,weatherlink.com 1.10,2013-03-21 21:19:00,
2013-03-21 17:34:00,33.5,9.0,29.80,NW,315,16.0,16.0,36,0.00,,,0.00,weatherlink.com 1.10,2013-03-21 21:34:00,
2013-03-21 17:49:00,33.0,9.0,29.81,NW,325,4.0,23.0,36,0.00,,,0.00,weatherlink.com 1.10,2013-03-21 21:49:00,
2013-03-21 18:04:00,32.9,10.0,29.82,NNE,19,9.0,16.0,38,0.00,,,0.00,weatherlink.com 1.10,2013-03-21 22:04:00,
2013-03-21 18:19:00,32.8,10.0,29.82,North,350,5.0,20.0,39,0.00,,,0.00,weatherlink.com 1.10,2013-03-21 22:19:00,
2013-03-21 18:34:00,32.9,9.0,29.83,North,355,3.0,15.0,37,0.00,,,0.00,weatherlink.com 1.10,2013-03-21 22:34:00,
2013-03-21 18:49:00,32.4,8.0,29.84,NNW,345,5.0,19.0,36,0.00,,,0.00,weatherlink.com 1.10,2013-03-21 22:49:00,
2013-03-21 19:04:00,32.2,8.0,29.84,NW,319,8.0,17.0,37,0.00,,,0.00,weatherlink.com 1.10,2013-03-21 23:04:00,
2013-03-21 19:19:00,31.9,8.0,29.85,WNW,303,6.0,16.0,37,0.00,,,0.00,weatherlink.com 1.10,2013-03-21 23:19:00,
2013-03-21 19:34:00,31.7,9.0,29.86,WNW,284,7.0,17.0,38,0.00,,,0.00,weatherlink.com 1.10,2013-03-21 23:34:00,
2013-03-21 19:49:00,31.4,9.0,29.86,WNW,297,7.0,14.0,39,0.00,,,0.00,weatherlink.com 1.10,2013-03-21 23:49:00,
2013-03-21 20:04:00,31.2,9.0,29.86,North,360,3.0,12.0,39,0.00,,,0.00,weatherlink.com 1.10,2013-03-22 00:04:00,
2013-03-21 20:19:00,30.9,10.0,29.87,NW,320,5.0,15.0,41,0.00,,,0.00,weatherlink.com 1.10,2013-03-22 00:19:00,
2013-03-21 20:34:00,30.6,9.0,29.88,North,5,6.0,14.0,41,0.00,,,0.00,weatherlink.com 1.10,2013-03-22 00:34:00,
2013-03-21 20:49:00,30.3,9.0,29.89,North,355,1.0,15.0,41,0.00,,,0.00,weatherlink.com 1.10,2013-03-22 00:49:00,
2013-03-21 21:04:00,30.2,10.0,29.89,North,11,9.0,11.0,42,0.00,,,0.00,weatherlink.com 1.10,2013-03-22 01:04:00,
2013-03-21 21:19:00,30.0,9.0,29.90,West,269,2.0,12.0,42,0.00,,,0.00,weatherlink.com 1.10,2013-03-22 01:19:00,
2013-03-21 21:34:00,29.9,10.0,29.90,North,350,1.0,8.0,43,0.00,,,0.00,weatherlink.com 1.10,2013-03-22 01:34:00,
2013-03-21 21:49:00,29.7,10.0,29.91,NW,315,4.0,6.0,43,0.00,,,0.00,weatherlink.com 1.10,2013-03-22 01:49:00,
2013-03-21 22:04:00,29.7,10.0,29.91,North,355,3.0,7.0,43,0.00,,,0.00,weatherlink.com 1.10,2013-03-22 02:04:00,
2013-03-21 22:19:00,29.6,9.0,29.91,NW,306,2.0,5.0,43,0.00,,,0.00,weatherlink.com 1.10,2013-03-22 02:19:00,
2013-03-21 22:34:00,29.5,9.0,29.91,WNW,302,2.0,8.0,43,0.00,,,0.00,weatherlink.com 1.10,2013-03-22 02:34:00,
2013-03-21 22:50:00,29.4,9.0,29.91,NW,311,3.0,9.0,43,0.00,,,0.00,weatherlink.com 1.10,2013-03-22 02:50:00,
2013-03-21 23:05:00,29.3,10.0,29.92,West,269,6.0,9.0,44,0.00,,,0.00,weatherlink.com 1.10,2013-03-22 03:05:00,
2013-03-21 23:20:00,29.2,10.0,29.92,WNW,299,3.0,9.0,45,0.00,,,0.00,weatherlink.com 1.10,2013-03-22 03:20:00,
2013-03-21 23:35:00,29.1,10.0,29.92,WNW,285,3.0,11.0,45,0.00,,,0.00,weatherlink.com 1.10,2013-03-22 03:35:00,
2013-03-21 23:50:00,29.0,10.0,29.92,West,275,5.0,11.0,46,0.00,,,0.00,weatherlink.com 1.10,2013-03-22 03:50:00,